createdAt,value
2022-11-04T00:00:28.541Z,99404.63
2022-11-04T00:05:32.400Z,99401.97
2022-11-04T00:10:52.625Z,99406.53
2022-11-04T00:16:12.815Z,99405.28
2022-11-04T00:21:33.007Z,99409.81
2022-11-04T00:26:53.181Z,99438.09
2022-11-04T00:32:13.360Z,99453.19
2022-11-04T00:37:14.927Z,99451.13
2022-11-04T00:42:16.493Z,99453.59
2022-11-04T00:47:18.076Z,99472.44
2022-11-04T00:52:20.029Z,99465.19
2022-11-04T00:57:21.587Z,99476.75
2022-11-04T01:02:23.678Z,99469.22
2022-11-04T01:07:25.579Z,99475.63
2022-11-04T01:12:27.142Z,99473.16
2022-11-04T01:17:28.764Z,99470.44
2022-11-04T01:22:30.308Z,99471.25
2022-11-04T01:27:31.934Z,99463.88
2022-11-04T01:32:33.541Z,99464.13
2022-11-04T01:37:35.651Z,99478.53
2022-11-04T01:42:37.447Z,99476.53
2022-11-04T01:47:49.102Z,99480.22
2022-11-04T01:52:54.516Z,99476.28
2022-11-04T01:58:01.352Z,99474.31
2022-11-04T02:03:13.405Z,99480.25
2022-11-04T02:08:16.796Z,99476.59
2022-11-04T02:13:18.600Z,99475.66
2022-11-04T02:18:29.292Z,99484.47
2022-11-04T02:23:42.702Z,99485.88
2022-11-04T02:29:24.077Z,99466.91
2022-11-04T02:34:47.433Z,99477.56
2022-11-04T02:39:58.105Z,99468.44
2022-11-04T02:45:38.159Z,99471.03
2022-11-04T02:50:45.555Z,99470.94
2022-11-04T02:55:52.577Z,99474.63
2022-11-04T03:00:57.055Z,99471.75
2022-11-04T03:06:01.872Z,99479.94
2022-11-04T03:11:11.244Z,99461.44
2022-11-04T03:16:49.818Z,99452.66
2022-11-04T03:21:58.351Z,99465.56
2022-11-04T03:27:40.902Z,99449.31
2022-11-04T03:32:54.610Z,99457.72
2022-11-04T03:37:57.270Z,99487.63
2022-11-04T03:43:07.893Z,99481.69
2022-11-04T03:48:10.003Z,99475.50
2022-11-04T03:53:13.810Z,99472.69
2022-11-04T03:58:27.946Z,99467.94
2022-11-04T04:03:50.873Z,99441.56
2022-11-04T04:08:57.231Z,99442.28
2022-11-04T04:14:40.308Z,99427.09
2022-11-04T04:19:52.712Z,99412.50
2022-11-04T04:25:16.936Z,99417.34
2022-11-04T04:30:19.002Z,99409.41
2022-11-04T04:35:42.249Z,99424.81
2022-11-04T04:41:08.459Z,99430.72
2022-11-04T04:46:11.860Z,99430.34
2022-11-04T04:51:13.515Z,99430.47
2022-11-04T04:56:15.191Z,99433.66
2022-11-04T05:01:16.790Z,99428.06
2022-11-04T05:06:18.388Z,99429.84
2022-11-04T05:11:24.479Z,99421.06
2022-11-04T05:16:29.248Z,99412.88
2022-11-04T05:21:30.886Z,99400.91
2022-11-04T05:26:32.452Z,99386.97
2022-11-04T05:31:34.027Z,99373.97
2022-11-04T05:36:35.617Z,99377.53
2022-11-04T05:41:37.238Z,99385.13
2022-11-04T05:46:43.868Z,99399.09
2022-11-04T05:51:45.459Z,99413.19
2022-11-04T05:56:47.076Z,99411.50
2022-11-04T06:01:50.283Z,99409.00
2022-11-04T06:06:52.018Z,99412.88
2022-11-04T06:11:53.741Z,99422.44
2022-11-04T06:16:55.311Z,99433.06
2022-11-04T06:21:57.008Z,99416.81
2022-11-04T06:26:58.583Z,99412.84
2022-11-04T06:32:00.176Z,99394.59
2022-11-04T06:37:02.015Z,99394.38
2022-11-04T06:42:04.758Z,99395.88
2022-11-04T06:47:08.225Z,99398.25
2022-11-04T06:52:13.899Z,99405.16
2022-11-04T06:57:15.502Z,99404.75
2022-11-04T07:02:17.205Z,99409.88
2022-11-04T07:07:20.078Z,99415.13
2022-11-04T07:12:23.544Z,99414.81
2022-11-04T07:17:25.275Z,99428.13
2022-11-04T07:22:32.052Z,99424.69
2022-11-04T07:27:33.602Z,99419.28
2022-11-04T07:32:35.207Z,99418.47
2022-11-04T07:37:36.773Z,99419.53
2022-11-04T07:42:38.420Z,99407.06
2022-11-04T07:47:42.535Z,99422.34
2022-11-04T07:52:45.869Z,99416.75
2022-11-04T07:57:48.386Z,99416.38
2022-11-04T08:02:50.631Z,99412.38
2022-11-04T08:07:52.218Z,99406.22
2022-11-04T08:12:53.771Z,99411.41
2022-11-04T08:17:55.391Z,99412.16
2022-11-04T08:22:56.985Z,99410.69
2022-11-04T08:28:01.018Z,99414.75
2022-11-04T08:33:03.209Z,99418.03
2022-11-04T08:38:04.764Z,99427.50
2022-11-04T08:43:06.588Z,99429.78
2022-11-04T08:48:08.756Z,99442.75
2022-11-04T08:53:10.931Z,99469.09
2022-11-04T08:58:13.079Z,99474.38
2022-11-04T09:03:14.639Z,99484.09
2022-11-04T09:08:17.918Z,99501.22
2022-11-04T09:13:19.530Z,99519.41
2022-11-04T09:18:21.230Z,99527.09
2022-11-04T09:23:23.165Z,99546.38
2022-11-04T09:28:25.771Z,99564.50
2022-11-04T09:33:27.536Z,99576.19
2022-11-04T09:38:29.424Z,99582.06
2022-11-04T09:43:53.204Z,99591.91
2022-11-04T09:48:57.732Z,99625.47
2022-11-04T09:54:04.824Z,99656.47
2022-11-04T09:59:06.708Z,99697.84
2022-11-04T10:04:27.645Z,99726.84
2022-11-04T10:09:38.277Z,99770.28
2022-11-04T10:15:13.569Z,99791.56
2022-11-04T10:20:50.694Z,99779.28
2022-11-04T10:25:52.166Z,99786.53
2022-11-04T10:30:53.845Z,99747.28
2022-11-04T10:36:05.966Z,99742.19
2022-11-04T10:41:20.193Z,99769.13
2022-11-04T10:46:43.444Z,99768.22
2022-11-04T10:51:45.425Z,99822.84
2022-11-04T10:56:55.790Z,99862.88
2022-11-04T11:01:59.944Z,99874.81
2022-11-04T11:07:04.559Z,99920.16
2022-11-04T11:12:55.887Z,99888.41
2022-11-04T11:18:17.319Z,99892.47
2022-11-04T11:23:31.060Z,99828.31
2022-11-04T11:28:38.113Z,99670.44
2022-11-04T11:34:00.478Z,99552.72
2022-11-04T11:39:22.085Z,99463.94
2022-11-04T11:44:47.921Z,99454.53
2022-11-04T11:50:24.516Z,99533.63
2022-11-04T11:55:36.028Z,99609.03
2022-11-04T12:00:48.744Z,99641.53
2022-11-04T12:06:30.382Z,99715.78
2022-11-04T12:11:59.540Z,99682.56
2022-11-04T12:17:03.849Z,99692.19
2022-11-04T12:22:22.970Z,99658.84
2022-11-04T12:27:27.501Z,99639.78
2022-11-04T12:32:57.440Z,99687.22
2022-11-04T12:38:08.257Z,99759.97
2022-11-04T12:44:06.724Z,99797.38
2022-11-04T12:49:18.457Z,99785.59
2022-11-04T12:54:22.626Z,99785.19
2022-11-04T12:59:49.067Z,99752.16
2022-11-04T13:05:00.722Z,99773.66
2022-11-04T13:10:20.608Z,99752.69
2022-11-04T13:15:28.567Z,99774.88
2022-11-04T13:20:47.677Z,99795.88
2022-11-04T13:25:50.924Z,99845.81
2022-11-04T13:31:21.558Z,99838.66
2022-11-04T13:36:46.136Z,99875.91
2022-11-04T13:41:57.000Z,99872.88
2022-11-04T13:47:02.135Z,99837.81
2022-11-04T13:52:11.570Z,99805.75
2022-11-04T13:57:17.973Z,99765.38
2022-11-04T14:02:19.537Z,99750.97
2022-11-04T14:08:02.241Z,99710.16
2022-11-04T14:13:37.395Z,99704.00
2022-11-04T14:18:44.589Z,99711.78
2022-11-04T14:23:51.094Z,99694.94
2022-11-04T14:29:18.166Z,99625.38
2022-11-04T14:34:27.667Z,99499.50
2022-11-04T14:39:37.288Z,99422.19
2022-11-04T14:44:49.623Z,99390.59
2022-11-04T14:50:01.523Z,99375.69
2022-11-04T14:55:12.173Z,99381.25
2022-11-04T15:00:34.759Z,99385.72
2022-11-04T15:05:38.725Z,99410.00
2022-11-04T15:10:40.304Z,99435.50
2022-11-04T15:15:48.691Z,99453.06
2022-11-04T15:21:03.221Z,99457.91
2022-11-04T15:26:05.423Z,99481.13
2022-11-04T15:31:12.946Z,99459.97
2022-11-04T15:36:22.202Z,99434.69
2022-11-04T15:41:43.704Z,99419.09
2022-11-04T15:46:54.414Z,99425.50
2022-11-04T15:52:08.360Z,99429.22
2022-11-04T15:57:18.104Z,99434.72
2022-11-04T16:02:32.898Z,99459.69
2022-11-04T16:07:37.383Z,99465.41
2022-11-04T16:12:43.908Z,99477.00
2022-11-04T16:17:45.638Z,99477.19
2022-11-04T16:22:54.897Z,99481.16
2022-11-04T16:27:56.550Z,99487.28
2022-11-04T16:33:10.280Z,99484.13
2022-11-04T16:38:12.529Z,99499.03
2022-11-04T16:43:18.914Z,99505.03
2022-11-04T16:48:21.956Z,99513.50
2022-11-04T16:53:23.501Z,99524.38
2022-11-04T16:58:25.193Z,99542.72
2022-11-04T17:03:26.743Z,99549.38
2022-11-04T17:08:28.282Z,99560.94
2022-11-04T17:13:33.521Z,99579.56
2022-11-04T17:18:37.856Z,99584.94
2022-11-04T17:23:39.437Z,99598.69
2022-11-04T17:28:41.362Z,99611.78
2022-11-04T17:33:43.196Z,99616.41
2022-11-04T17:38:45.627Z,99628.66
2022-11-04T17:44:02.121Z,99636.63
2022-11-04T17:49:19.623Z,99648.16
2022-11-04T17:54:23.340Z,99652.53
2022-11-04T17:59:25.064Z,99658.22
2022-11-04T18:04:26.644Z,99669.28
2022-11-04T18:09:28.212Z,99672.84
2022-11-04T18:14:30.366Z,99685.81
2022-11-04T18:19:31.916Z,99697.94
2022-11-04T18:24:33.617Z,99708.75
2022-11-04T18:29:35.299Z,99700.41
2022-11-04T18:34:36.946Z,99712.56
2022-11-04T18:39:41.828Z,99714.59
2022-11-04T18:44:43.446Z,99728.84
2022-11-04T18:49:46.611Z,99745.09
2022-11-04T18:54:48.202Z,99748.63
2022-11-04T18:59:49.824Z,99740.16
2022-11-04T19:04:51.710Z,99750.31
2022-11-04T19:09:54.658Z,99750.81
2022-11-04T19:14:56.407Z,99765.41
2022-11-04T19:19:58.264Z,99776.50
2022-11-04T19:24:59.920Z,99777.69
2022-11-04T19:30:01.810Z,99792.44
2022-11-04T19:35:03.521Z,99798.34
2022-11-04T19:40:06.251Z,99815.13
2022-11-04T19:45:08.380Z,99819.50
2022-11-04T19:50:10.295Z,99837.38
2022-11-04T19:55:11.964Z,99839.38
2022-11-04T20:00:14.977Z,99842.34
2022-11-04T20:05:16.765Z,99849.59
2022-11-04T20:10:18.394Z,99861.44
2022-11-04T20:15:20.445Z,99868.69
2022-11-04T20:20:21.991Z,99871.75
2022-11-04T20:25:23.606Z,99873.97
2022-11-04T20:30:25.192Z,99880.13
2022-11-04T20:35:26.897Z,99887.47
2022-11-04T20:40:29.037Z,99895.06
2022-11-04T20:45:32.389Z,99905.19
2022-11-04T20:50:36.152Z,99907.31
2022-11-04T20:55:40.015Z,99915.03
2022-11-04T21:00:41.711Z,99927.63
2022-11-04T21:05:44.099Z,99933.09
2022-11-04T21:10:49.423Z,99940.25
2022-11-04T21:15:53.114Z,99947.81
2022-11-04T21:20:55.526Z,99960.44
2022-11-04T21:26:03.921Z,99973.47
2022-11-04T21:31:09.698Z,99976.22
2022-11-04T21:36:13.447Z,99978.94
2022-11-04T21:41:17.792Z,99990.91
2022-11-04T21:46:19.408Z,99997.47
2022-11-04T21:51:26.871Z,100003.97
2022-11-04T21:56:32.993Z,100012.78
2022-11-04T22:01:34.934Z,100018.25
2022-11-04T22:06:36.618Z,100016.59
2022-11-04T22:11:40.610Z,100021.44
2022-11-04T22:16:42.236Z,100026.75
2022-11-04T22:21:45.312Z,100017.72
2022-11-04T22:26:47.815Z,100020.84
2022-11-04T22:31:49.449Z,100022.50
2022-11-04T22:36:51.023Z,100032.59
2022-11-04T22:41:52.581Z,100030.84
2022-11-04T22:46:54.145Z,100038.38
2022-11-04T22:51:55.724Z,100040.06
2022-11-04T22:56:57.539Z,100037.94
2022-11-04T23:01:59.335Z,100051.38
2022-11-04T23:07:00.967Z,100058.47
2022-11-04T23:12:20.878Z,100060.38
2022-11-04T23:17:41.149Z,100065.25
2022-11-04T23:23:01.291Z,100069.50
2022-11-04T23:28:21.162Z,100070.22
2022-11-04T23:33:45.521Z,100065.88
2022-11-04T23:38:50.340Z,100068.47
2022-11-04T23:43:52.306Z,100060.75
2022-11-04T23:49:12.392Z,100055.94
2022-11-04T23:54:32.534Z,100061.66
2022-11-04T23:59:52.736Z,100061.66
